createdAt,value
2023-11-29T00:01:02.111Z,11.45
2023-11-29T00:03:34.626Z,12.23
2023-11-29T00:06:07.722Z,13.50
2023-11-29T00:08:40.903Z,13.30
2023-11-29T00:11:13.127Z,13.05
2023-11-29T00:13:45.506Z,12.00
2023-11-29T00:16:18.571Z,13.50
2023-11-29T00:18:51.022Z,12.27
2023-11-29T00:21:23.848Z,12.38
2023-11-29T00:23:56.149Z,12.48
2023-11-29T00:26:28.455Z,13.32
2023-11-29T00:29:01.624Z,12.95
2023-11-29T00:31:35.672Z,13.35
2023-11-29T00:34:09.418Z,12.40
2023-11-29T00:36:42.216Z,12.77
2023-11-29T00:39:14.464Z,12.85
2023-11-29T00:41:47.992Z,13.90
2023-11-29T00:44:20.753Z,13.45
2023-11-29T00:46:53.070Z,14.75
2023-11-29T00:49:25.499Z,13.13
2023-11-29T00:51:58.425Z,13.43
2023-11-29T00:54:30.977Z,12.52
2023-11-29T00:57:03.520Z,12.80
2023-11-29T00:59:36.430Z,14.32
2023-11-29T01:02:08.975Z,14.43
2023-11-29T01:04:43.898Z,13.40
2023-11-29T01:07:17.834Z,14.43
2023-11-29T01:09:51.184Z,13.48
2023-11-29T01:12:23.478Z,14.63
2023-11-29T01:14:58.877Z,14.00
2023-11-29T01:17:32.580Z,14.48
2023-11-29T01:20:06.976Z,13.07
2023-11-29T01:22:39.757Z,13.88
2023-11-29T01:25:12.170Z,13.68
2023-11-29T01:27:44.509Z,13.30
2023-11-29T01:30:18.108Z,12.70
2023-11-29T01:32:52.918Z,12.73
2023-11-29T01:35:25.163Z,13.50
2023-11-29T01:37:59.500Z,13.65
2023-11-29T01:40:32.644Z,14.15
2023-11-29T01:43:05.833Z,15.45
2023-11-29T01:45:38.052Z,12.57
2023-11-29T01:48:10.684Z,13.45
2023-11-29T01:50:46.577Z,13.73
2023-11-29T01:53:24.700Z,14.13
2023-11-29T01:55:59.708Z,14.15
2023-11-29T01:58:32.469Z,13.15
2023-11-29T02:01:05.477Z,14.82
2023-11-29T02:03:39.364Z,13.70
2023-11-29T02:06:12.611Z,12.98
2023-11-29T02:08:45.080Z,14.07
2023-11-29T02:11:20.537Z,12.10
2023-11-29T02:13:56.116Z,13.77
2023-11-29T02:16:28.908Z,13.48
2023-11-29T02:19:01.391Z,15.02
2023-11-29T02:21:34.266Z,13.88
2023-11-29T02:24:13.166Z,13.80
2023-11-29T02:26:49.160Z,14.05
2023-11-29T02:29:21.477Z,14.15
2023-11-29T02:31:53.852Z,12.98
2023-11-29T02:34:26.135Z,13.10
2023-11-29T02:36:58.332Z,14.38
2023-11-29T02:39:31.033Z,14.48
2023-11-29T02:42:03.267Z,14.50
2023-11-29T02:44:36.415Z,14.65
2023-11-29T02:47:09.030Z,14.95
2023-11-29T02:49:41.147Z,13.82
2023-11-29T02:52:15.721Z,13.60
2023-11-29T02:54:49.191Z,14.25
2023-11-29T02:57:21.660Z,14.02
2023-11-29T02:59:53.993Z,13.80
2023-11-29T03:02:26.295Z,13.55
2023-11-29T03:04:58.738Z,13.15
2023-11-29T03:07:31.473Z,14.50
2023-11-29T03:10:04.456Z,13.93
2023-11-29T03:12:37.255Z,14.32
2023-11-29T03:15:10.414Z,13.13
2023-11-29T03:17:44.412Z,11.50
2023-11-29T03:20:17.025Z,13.57
2023-11-29T03:22:49.650Z,13.55
2023-11-29T03:25:22.090Z,12.55
2023-11-29T03:27:55.431Z,14.23
2023-11-29T03:30:27.689Z,15.60
2023-11-29T03:32:59.920Z,15.38
2023-11-29T03:35:32.396Z,13.02
2023-11-29T03:38:04.853Z,12.95
2023-11-29T03:40:37.026Z,12.70
2023-11-29T03:43:09.245Z,11.25
2023-11-29T03:45:41.593Z,12.13
2023-11-29T03:48:14.253Z,12.23
2023-11-29T03:50:46.585Z,13.57
2023-11-29T03:53:18.826Z,11.38
2023-11-29T03:55:51.490Z,11.18
2023-11-29T03:58:24.336Z,11.23
2023-11-29T04:00:56.511Z,10.77
2023-11-29T04:03:28.617Z,9.98
2023-11-29T04:06:00.798Z,10.65
2023-11-29T04:08:37.944Z,11.77
2023-11-29T04:11:12.065Z,10.15
2023-11-29T04:13:44.283Z,10.70
2023-11-29T04:16:28.888Z,10.93
2023-11-29T04:19:03.137Z,11.23
2023-11-29T04:21:36.632Z,10.50
2023-11-29T04:24:09.412Z,9.60
2023-11-29T04:26:42.894Z,10.02
2023-11-29T04:29:15.902Z,10.35
2023-11-29T04:31:48.234Z,9.40
2023-11-29T04:34:28.201Z,10.23
2023-11-29T04:37:07.539Z,11.55
2023-11-29T04:39:40.438Z,9.18
2023-11-29T04:42:12.765Z,10.27
2023-11-29T04:44:45.216Z,9.80
2023-11-29T04:47:17.508Z,9.38
2023-11-29T04:49:50.489Z,11.27
2023-11-29T04:52:23.021Z,10.00
2023-11-29T04:54:55.264Z,9.35
2023-11-29T04:57:27.433Z,9.85
2023-11-29T04:59:59.635Z,10.35
2023-11-29T05:02:32.233Z,8.50
2023-11-29T05:05:08.212Z,10.15
2023-11-29T05:07:40.506Z,10.70
2023-11-29T05:10:12.920Z,10.88
2023-11-29T05:12:45.831Z,10.82
2023-11-29T05:15:25.459Z,10.52
2023-11-29T05:18:06.081Z,11.45
2023-11-29T05:20:38.817Z,10.75
2023-11-29T05:23:11.567Z,10.70
2023-11-29T05:25:44.202Z,11.00
2023-11-29T05:28:16.869Z,11.00
2023-11-29T05:30:51.420Z,12.05
2023-11-29T05:33:25.019Z,11.15
2023-11-29T05:35:58.202Z,11.85
2023-11-29T05:38:30.478Z,10.55
2023-11-29T05:41:03.360Z,11.45
2023-11-29T05:43:37.280Z,11.38
2023-11-29T05:46:09.449Z,10.27
2023-11-29T05:48:41.898Z,10.55
2023-11-29T05:51:14.940Z,10.90
2023-11-29T05:53:47.223Z,11.85
2023-11-29T05:56:23.495Z,11.23
2023-11-29T05:58:56.513Z,11.15
2023-11-29T06:01:28.964Z,10.95
2023-11-29T06:04:01.316Z,10.30
2023-11-29T06:06:36.869Z,11.50
2023-11-29T06:09:10.669Z,12.25
2023-11-29T06:11:43.767Z,10.02
2023-11-29T06:14:16.085Z,11.05
2023-11-29T06:16:48.300Z,12.07
2023-11-29T06:19:23.705Z,12.63
2023-11-29T06:21:57.164Z,11.43
2023-11-29T06:24:32.882Z,12.10
2023-11-29T06:27:05.433Z,11.07
2023-11-29T06:29:38.880Z,10.95
2023-11-29T06:32:11.298Z,10.55
2023-11-29T06:34:45.249Z,10.57
2023-11-29T06:37:17.390Z,11.65
2023-11-29T06:39:50.067Z,12.70
2023-11-29T06:42:22.555Z,12.70
2023-11-29T06:44:55.232Z,11.35
2023-11-29T06:47:27.646Z,10.88
2023-11-29T06:49:59.798Z,10.80
2023-11-29T06:52:35.515Z,10.55
2023-11-29T06:55:08.640Z,11.52
2023-11-29T06:57:41.710Z,10.50
2023-11-29T07:00:18.115Z,10.90
2023-11-29T07:02:51.362Z,10.68
2023-11-29T07:05:23.857Z,10.52
2023-11-29T07:08:18.917Z,11.20
2023-11-29T07:10:52.004Z,9.45
2023-11-29T07:13:24.457Z,10.95
2023-11-29T07:15:58.387Z,11.75
2023-11-29T07:18:30.829Z,10.15
2023-11-29T07:21:03.753Z,9.15
2023-11-29T07:24:47.224Z,9.70
2023-11-29T07:27:21.181Z,9.55
2023-11-29T07:29:53.576Z,9.63
2023-11-29T07:32:26.009Z,10.68
2023-11-29T07:34:58.350Z,9.63
2023-11-29T07:37:30.648Z,9.30
2023-11-29T07:40:03.775Z,10.60
2023-11-29T07:42:40.149Z,9.93
2023-11-29T07:45:15.229Z,9.73
2023-11-29T07:47:47.608Z,8.95
2023-11-29T07:50:21.451Z,9.70
2023-11-29T07:52:54.804Z,9.95
2023-11-29T07:55:27.051Z,10.07
2023-11-29T07:58:00.036Z,9.30
2023-11-29T08:00:32.842Z,9.35
2023-11-29T08:03:05.941Z,9.77
2023-11-29T08:05:40.128Z,9.77
2023-11-29T08:08:14.395Z,9.02
2023-11-29T08:10:48.555Z,9.18
2023-11-29T08:13:21.193Z,9.95
2023-11-29T08:15:58.067Z,10.00
2023-11-29T08:18:30.713Z,8.90
2023-11-29T08:21:03.485Z,9.10
2023-11-29T08:23:36.358Z,8.70
2023-11-29T08:26:09.647Z,9.05
2023-11-29T08:28:42.649Z,9.52
2023-11-29T08:31:17.647Z,10.02
2023-11-29T08:33:50.454Z,9.70
2023-11-29T08:36:23.112Z,9.43
2023-11-29T08:38:57.058Z,9.40
2023-11-29T08:41:29.605Z,9.25
2023-11-29T08:44:02.059Z,8.70
2023-11-29T08:46:34.513Z,8.70
2023-11-29T08:49:07.025Z,8.73
2023-11-29T08:51:40.716Z,8.90
2023-11-29T08:54:14.431Z,9.60
2023-11-29T08:56:47.438Z,8.90
2023-11-29T08:59:20.608Z,9.00
2023-11-29T09:01:53.827Z,7.88
2023-11-29T09:04:26.607Z,8.30
2023-11-29T09:07:00.801Z,8.15
2023-11-29T09:09:37.225Z,8.18
2023-11-29T09:12:13.451Z,7.40
2023-11-29T09:14:50.307Z,7.45
2023-11-29T09:17:25.106Z,7.55
2023-11-29T09:20:00.413Z,7.72
2023-11-29T09:22:33.762Z,6.93
2023-11-29T09:25:07.245Z,8.07
2023-11-29T09:27:40.233Z,8.10
2023-11-29T09:30:14.458Z,7.43
2023-11-29T09:32:47.446Z,7.88
2023-11-29T09:35:20.076Z,7.72
2023-11-29T09:37:52.960Z,8.00
2023-11-29T09:40:25.927Z,8.73
2023-11-29T09:43:04.275Z,8.43
2023-11-29T09:45:39.468Z,8.88
2023-11-29T09:48:14.256Z,8.40
2023-11-29T09:50:47.389Z,8.75
2023-11-29T09:53:20.279Z,7.90
2023-11-29T09:55:54.432Z,8.57
2023-11-29T09:58:28.365Z,7.70
2023-11-29T10:01:00.861Z,8.15
2023-11-29T10:03:36.126Z,8.20
2023-11-29T10:06:10.347Z,8.55
2023-11-29T10:08:43.177Z,8.55
2023-11-29T10:11:47.207Z,8.90
2023-11-29T10:14:22.211Z,7.97
2023-11-29T10:16:55.286Z,8.75
2023-11-29T10:19:29.239Z,8.15
2023-11-29T10:22:04.237Z,7.20
2023-11-29T10:24:36.861Z,8.43
2023-11-29T10:27:11.785Z,8.90
2023-11-29T10:29:48.032Z,8.93
2023-11-29T10:32:21.355Z,7.50
2023-11-29T10:34:57.233Z,8.57
2023-11-29T10:37:30.755Z,7.15
2023-11-29T10:40:05.606Z,7.00
2023-11-29T10:42:41.148Z,7.40
2023-11-29T10:45:19.298Z,7.15
2023-11-29T10:47:59.507Z,8.00
2023-11-29T10:50:37.414Z,7.80
2023-11-29T10:53:10.908Z,7.78
2023-11-29T10:55:45.617Z,8.48
2023-11-29T10:58:24.006Z,8.98
2023-11-29T11:01:16.183Z,8.77
2023-11-29T11:04:03.028Z,7.57
2023-11-29T11:06:41.873Z,7.40
2023-11-29T11:09:37.697Z,7.75
2023-11-29T11:12:34.186Z,8.15
2023-11-29T11:15:24.637Z,7.60
2023-11-29T11:18:05.034Z,7.68
2023-11-29T11:21:00.715Z,7.63
2023-11-29T11:23:36.367Z,8.13
2023-11-29T11:26:14.554Z,8.77
2023-11-29T11:28:48.776Z,7.07
2023-11-29T11:31:24.333Z,7.25
2023-11-29T11:33:59.493Z,7.75
2023-11-29T11:36:43.848Z,7.00
2023-11-29T11:39:18.395Z,6.78
2023-11-29T11:41:54.192Z,7.60
2023-11-29T11:44:28.012Z,6.50
2023-11-29T11:47:02.123Z,7.45
2023-11-29T11:49:40.354Z,8.57
2023-11-29T11:52:13.361Z,7.28
2023-11-29T11:54:48.386Z,6.72
2023-11-29T11:57:21.877Z,7.28
2023-11-29T11:59:55.477Z,7.93
2023-11-29T12:02:29.322Z,7.40
2023-11-29T12:05:06.817Z,7.93
2023-11-29T12:07:43.137Z,6.35
2023-11-29T12:10:17.116Z,7.78
2023-11-29T12:12:49.843Z,8.25
2023-11-29T12:15:22.960Z,7.45
2023-11-29T12:17:55.903Z,7.85
2023-11-29T12:20:28.543Z,7.90
2023-11-29T12:23:02.365Z,8.00
2023-11-29T12:25:36.397Z,8.52
2023-11-29T12:28:12.712Z,7.50
2023-11-29T12:30:46.206Z,7.65
2023-11-29T12:33:19.072Z,7.97
2023-11-29T12:35:52.014Z,8.73
2023-11-29T12:38:24.767Z,7.97
2023-11-29T12:40:57.400Z,8.27
2023-11-29T12:43:31.258Z,8.48
2023-11-29T12:46:03.975Z,8.18
2023-11-29T12:48:36.732Z,8.70
2023-11-29T12:51:15.185Z,9.40
2023-11-29T12:53:47.900Z,9.80
2023-11-29T12:56:21.455Z,8.60
2023-11-29T12:58:54.043Z,8.60
2023-11-29T13:01:26.882Z,8.23
2023-11-29T13:04:01.773Z,8.65
2023-11-29T13:06:35.788Z,8.68
2023-11-29T13:09:08.266Z,8.25
2023-11-29T13:11:41.685Z,9.48
2023-11-29T13:14:14.466Z,8.98
2023-11-29T13:16:47.106Z,9.65
2023-11-29T13:19:19.863Z,8.05
2023-11-29T13:21:52.681Z,9.73
2023-11-29T13:24:25.949Z,9.40
2023-11-29T13:26:59.622Z,8.43
2023-11-29T13:29:33.724Z,9.52
2023-11-29T13:32:06.645Z,9.45
2023-11-29T13:34:39.110Z,8.55
2023-11-29T13:37:12.679Z,8.75
2023-11-29T13:39:45.121Z,8.55
2023-11-29T13:42:18.299Z,8.90
2023-11-29T13:44:51.276Z,9.52
2023-11-29T13:47:23.884Z,9.30
2023-11-29T13:49:58.556Z,9.40
2023-11-29T13:52:31.345Z,8.52
2023-11-29T13:55:04.223Z,9.48
2023-11-29T13:57:37.991Z,8.77
2023-11-29T14:00:10.945Z,7.57
2023-11-29T14:02:44.314Z,8.52
2023-11-29T14:05:17.184Z,8.25
2023-11-29T14:07:50.130Z,9.57
2023-11-29T14:10:24.572Z,8.40
2023-11-29T14:12:57.001Z,7.80
2023-11-29T14:15:29.374Z,9.30
2023-11-29T14:18:10.213Z,8.68
2023-11-29T14:20:43.192Z,8.82
2023-11-29T14:23:15.690Z,9.02
2023-11-29T14:25:48.256Z,7.95
2023-11-29T14:28:21.041Z,8.80
2023-11-29T14:30:54.011Z,7.63
2023-11-29T14:33:27.020Z,8.10
2023-11-29T14:35:59.624Z,8.20
2023-11-29T14:38:32.512Z,10.65
2023-11-29T14:41:11.776Z,8.40
2023-11-29T14:43:45.704Z,10.05
2023-11-29T14:46:18.168Z,11.68
2023-11-29T14:48:52.611Z,10.02
2023-11-29T14:51:25.288Z,8.70
2023-11-29T14:53:58.854Z,8.10
2023-11-29T14:56:36.902Z,7.82
2023-11-29T14:59:11.578Z,6.75
2023-11-29T15:01:44.236Z,7.70
2023-11-29T15:04:16.982Z,8.15
2023-11-29T15:06:50.083Z,8.60
2023-11-29T15:09:23.134Z,8.88
2023-11-29T15:11:56.365Z,8.73
2023-11-29T15:14:31.331Z,8.77
2023-11-29T15:17:05.634Z,12.70
2023-11-29T15:19:38.378Z,8.90
2023-11-29T15:22:12.089Z,8.18
2023-11-29T15:24:45.212Z,8.52
2023-11-29T15:27:18.741Z,8.98
2023-11-29T15:29:57.145Z,8.20
2023-11-29T15:32:30.550Z,9.23
2023-11-29T15:35:04.681Z,9.25
2023-11-29T15:37:41.012Z,9.68
2023-11-29T15:40:15.605Z,11.15
2023-11-29T15:42:51.117Z,9.10
2023-11-29T15:45:25.046Z,9.88
2023-11-29T15:47:58.722Z,9.48
2023-11-29T15:50:31.428Z,13.27
2023-11-29T15:53:04.375Z,11.50
2023-11-29T15:55:37.167Z,12.80
2023-11-29T15:58:10.297Z,10.20
2023-11-29T16:01:03.121Z,10.43
2023-11-29T16:04:01.479Z,11.35
2023-11-29T16:06:36.730Z,11.07
2023-11-29T16:09:09.490Z,11.23
2023-11-29T16:11:42.088Z,9.88
2023-11-29T16:14:15.029Z,9.80
2023-11-29T16:16:50.179Z,8.93
2023-11-29T16:19:22.746Z,8.43
2023-11-29T16:21:54.972Z,8.80
2023-11-29T16:24:27.607Z,8.52
2023-11-29T16:27:00.211Z,10.05
2023-11-29T16:29:34.164Z,9.82
2023-11-29T16:32:10.369Z,9.15
2023-11-29T16:34:49.115Z,8.90
2023-11-29T16:37:22.048Z,8.45
2023-11-29T16:39:55.105Z,8.80
2023-11-29T16:42:27.551Z,8.50
2023-11-29T16:45:00.346Z,9.48
2023-11-29T16:47:32.955Z,10.00
2023-11-29T16:50:07.177Z,8.40
2023-11-29T16:52:42.004Z,10.30
2023-11-29T16:55:15.896Z,9.90
2023-11-29T16:57:49.276Z,10.10
2023-11-29T17:00:22.132Z,8.57
2023-11-29T17:02:54.963Z,11.63
2023-11-29T17:05:27.476Z,12.60
2023-11-29T17:07:59.951Z,11.07
2023-11-29T17:10:33.839Z,10.10
2023-11-29T17:13:06.934Z,11.18
2023-11-29T17:15:39.349Z,10.82
2023-11-29T17:18:11.891Z,10.38
2023-11-29T17:20:45.033Z,9.38
2023-11-29T17:23:17.856Z,10.60
2023-11-29T17:25:50.202Z,10.85
2023-11-29T17:28:22.693Z,12.40
2023-11-29T17:30:58.000Z,10.75
2023-11-29T17:33:30.914Z,14.00
2023-11-29T17:36:04.230Z,14.15
2023-11-29T17:38:38.360Z,14.20
2023-11-29T17:41:12.440Z,15.75
2023-11-29T17:43:45.353Z,16.88
2023-11-29T17:46:17.999Z,11.27
2023-11-29T17:48:51.016Z,10.55
2023-11-29T17:51:23.994Z,10.70
2023-11-29T17:53:56.778Z,9.88
2023-11-29T17:56:36.570Z,9.40
2023-11-29T17:59:15.282Z,14.00
2023-11-29T18:01:48.413Z,10.15
2023-11-29T18:04:21.399Z,10.38
2023-11-29T18:06:54.859Z,9.65
2023-11-29T18:09:28.233Z,10.75
2023-11-29T18:12:01.412Z,9.50
2023-11-29T18:14:34.499Z,9.02
2023-11-29T18:17:07.470Z,9.05
2023-11-29T18:19:40.103Z,8.93
2023-11-29T18:22:12.766Z,7.68
2023-11-29T18:24:45.740Z,8.50
2023-11-29T18:27:18.770Z,8.27
2023-11-29T18:29:51.702Z,8.60
2023-11-29T18:32:26.436Z,9.00
2023-11-29T18:35:00.013Z,8.35
2023-11-29T18:37:36.438Z,8.55
2023-11-29T18:40:10.476Z,8.93
2023-11-29T18:42:43.591Z,9.00
2023-11-29T18:45:17.182Z,8.05
2023-11-29T18:47:50.397Z,9.10
2023-11-29T18:50:23.709Z,8.43
2023-11-29T18:52:56.757Z,8.70
2023-11-29T18:55:32.302Z,8.35
2023-11-29T18:58:05.036Z,7.90
2023-11-29T19:00:38.413Z,8.40
2023-11-29T19:03:11.506Z,11.50
2023-11-29T19:05:46.996Z,12.90
2023-11-29T19:08:20.399Z,16.20
2023-11-29T19:10:53.871Z,13.80
2023-11-29T19:13:27.136Z,13.40
2023-11-29T19:16:00.250Z,14.15
2023-11-29T19:18:33.735Z,12.48
2023-11-29T19:21:10.131Z,11.07
2023-11-29T19:23:49.691Z,12.18
2023-11-29T19:26:33.687Z,11.38
2023-11-29T19:29:09.306Z,11.68
2023-11-29T19:31:44.217Z,11.18
2023-11-29T19:34:18.483Z,11.13
2023-11-29T19:36:51.697Z,10.80
2023-11-29T19:39:26.191Z,10.50
2023-11-29T19:41:59.976Z,9.85
2023-11-29T19:44:33.650Z,10.18
2023-11-29T19:47:12.704Z,10.52
2023-11-29T19:49:48.919Z,11.02
2023-11-29T19:52:22.852Z,9.93
2023-11-29T19:54:57.803Z,10.95
2023-11-29T19:57:34.464Z,10.05
2023-11-29T20:00:08.285Z,9.98
2023-11-29T20:02:42.088Z,9.60
2023-11-29T20:05:15.619Z,9.18
2023-11-29T20:07:48.953Z,12.02
2023-11-29T20:10:22.644Z,16.15
2023-11-29T20:12:57.026Z,15.95
2023-11-29T20:15:30.861Z,12.73
2023-11-29T20:18:04.647Z,14.95
2023-11-29T20:20:52.554Z,13.80
2023-11-29T20:23:32.176Z,12.77
2023-11-29T20:26:05.914Z,14.30
2023-11-29T20:28:41.338Z,14.25
2023-11-29T20:31:18.461Z,12.50
2023-11-29T20:33:58.938Z,12.13
2023-11-29T20:36:34.630Z,12.43
2023-11-29T20:39:07.904Z,12.60
2023-11-29T20:41:49.032Z,19.58
2023-11-29T20:44:28.196Z,15.90
2023-11-29T20:47:02.365Z,17.35
2023-11-29T20:49:36.554Z,14.80
2023-11-29T20:52:09.567Z,12.18
2023-11-29T20:54:43.025Z,12.90
2023-11-29T20:57:17.087Z,13.07
2023-11-29T20:59:50.730Z,14.82
2023-11-29T21:02:23.890Z,16.83
2023-11-29T21:04:57.292Z,19.17
2023-11-29T21:07:30.271Z,18.17
2023-11-29T21:10:05.048Z,20.55
2023-11-29T21:12:38.778Z,11.60
2023-11-29T21:15:13.519Z,10.50
2023-11-29T21:17:46.612Z,10.10
2023-11-29T21:20:22.831Z,9.13
2023-11-29T21:22:56.387Z,9.10
2023-11-29T21:25:29.844Z,9.15
2023-11-29T21:28:04.740Z,8.90
2023-11-29T21:30:38.057Z,10.15
2023-11-29T21:33:11.908Z,9.77
2023-11-29T21:35:44.942Z,10.00
2023-11-29T21:38:18.025Z,8.60
2023-11-29T21:40:51.205Z,8.23
2023-11-29T21:43:26.040Z,8.90
2023-11-29T21:46:00.227Z,7.90
2023-11-29T21:48:33.668Z,8.65
2023-11-29T21:51:07.345Z,9.25
2023-11-29T21:53:44.296Z,9.02
2023-11-29T21:56:19.953Z,8.50
2023-11-29T21:58:53.002Z,7.75
2023-11-29T22:01:26.453Z,7.28
2023-11-29T22:03:59.547Z,7.38
2023-11-29T22:06:32.085Z,8.45
2023-11-29T22:09:05.253Z,8.00
2023-11-29T22:11:38.257Z,8.00
2023-11-29T22:14:14.442Z,7.70
2023-11-29T22:16:47.255Z,9.05
2023-11-29T22:19:19.889Z,9.20
2023-11-29T22:21:55.281Z,8.38
2023-11-29T22:24:29.247Z,8.95
2023-11-29T22:27:02.460Z,8.88
2023-11-29T22:29:35.623Z,8.18
2023-11-29T22:32:09.521Z,8.27
2023-11-29T22:34:42.620Z,7.50
2023-11-29T22:37:15.432Z,8.77
2023-11-29T22:39:47.657Z,8.20
2023-11-29T22:42:19.997Z,8.27
2023-11-29T22:44:52.951Z,8.23
2023-11-29T22:47:26.353Z,8.80
2023-11-29T22:49:59.338Z,7.93
2023-11-29T22:52:32.413Z,8.50
2023-11-29T22:55:05.593Z,8.45
2023-11-29T22:57:38.681Z,7.55
2023-11-29T23:00:12.113Z,8.18
2023-11-29T23:02:48.194Z,8.88
2023-11-29T23:05:20.775Z,7.78
2023-11-29T23:07:53.168Z,8.48
2023-11-29T23:10:25.697Z,9.60
2023-11-29T23:12:58.389Z,8.07
2023-11-29T23:15:31.076Z,8.90
2023-11-29T23:18:03.610Z,8.55
2023-11-29T23:20:38.297Z,9.20
2023-11-29T23:23:14.375Z,8.90
2023-11-29T23:25:53.026Z,8.27
2023-11-29T23:28:25.299Z,8.52
2023-11-29T23:30:57.811Z,8.15
2023-11-29T23:33:30.948Z,9.18
2023-11-29T23:36:05.021Z,8.32
2023-11-29T23:38:37.753Z,8.07
2023-11-29T23:41:09.996Z,8.27
2023-11-29T23:43:45.166Z,7.97
2023-11-29T23:46:17.317Z,8.32
2023-11-29T23:48:49.609Z,8.60
2023-11-29T23:51:21.956Z,7.88
2023-11-29T23:53:54.668Z,8.20
2023-11-29T23:56:27.142Z,7.90
2023-11-29T23:58:59.680Z,8.63
